createdAt,value
2019-01-23T00:00:48.071Z,255.07
2019-01-23T00:03:17.731Z,261.07
2019-01-23T00:05:47.401Z,261.17
2019-01-23T00:08:17.036Z,251.00
2019-01-23T00:10:46.658Z,260.37
2019-01-23T00:13:16.310Z,270.47
2019-01-23T00:15:45.999Z,261.60
2019-01-23T00:18:15.614Z,280.27
2019-01-23T00:20:45.322Z,271.27
2019-01-23T00:23:15.018Z,281.60
2019-01-23T00:25:44.679Z,271.07
2019-01-23T00:28:14.248Z,272.03
2019-01-23T00:30:43.989Z,272.83
2019-01-23T00:33:13.649Z,255.20
2019-01-23T00:35:43.288Z,260.37
2019-01-23T00:38:12.970Z,256.77
2019-01-23T00:40:42.599Z,247.93
2019-01-23T00:43:12.250Z,239.27
2019-01-23T00:45:41.840Z,229.73
2019-01-23T00:48:11.439Z,175.50
2019-01-23T00:50:41.065Z,213.73
2019-01-23T00:53:10.763Z,199.50
2019-01-23T00:55:40.470Z,216.27
2019-01-23T00:58:10.132Z,207.60
2019-01-23T01:00:39.738Z,201.10
2019-01-23T01:03:09.376Z,219.30
2019-01-23T01:05:38.985Z,207.70
2019-01-23T01:08:08.970Z,207.90
2019-01-23T01:10:38.507Z,208.17
2019-01-23T01:13:08.186Z,138.50
2019-01-23T01:15:37.825Z,212.03
2019-01-23T01:18:07.486Z,156.83
2019-01-23T01:20:37.090Z,158.67
2019-01-23T01:23:06.844Z,191.63
2019-01-23T01:25:36.496Z,200.40
2019-01-23T01:28:06.152Z,211.67
2019-01-23T01:30:35.941Z,189.73
2019-01-23T01:33:05.643Z,221.63
2019-01-23T01:35:35.362Z,191.93
2019-01-23T01:38:05.089Z,211.13
2019-01-23T01:40:34.787Z,163.27
2019-01-23T01:43:04.463Z,253.40
2019-01-23T01:45:34.072Z,147.97
2019-01-23T01:48:03.640Z,169.90
2019-01-23T01:50:33.261Z,179.77
2019-01-23T01:53:02.805Z,219.67
2019-01-23T01:55:32.788Z,182.63
2019-01-23T01:58:02.790Z,143.30
2019-01-23T02:00:32.452Z,167.30
2019-01-23T02:03:02.143Z,212.23
2019-01-23T02:05:31.749Z,208.33
2019-01-23T02:08:01.425Z,225.40
2019-01-23T02:10:30.989Z,216.40
2019-01-23T02:13:00.602Z,214.93
2019-01-23T02:15:30.296Z,189.07
2019-01-23T02:17:59.964Z,212.03
2019-01-23T02:20:30.128Z,181.30
2019-01-23T02:22:59.845Z,221.43
2019-01-23T02:25:29.406Z,224.50
2019-01-23T02:27:59.161Z,151.70
2019-01-23T02:30:28.832Z,195.20
2019-01-23T02:32:58.510Z,195.57
2019-01-23T02:35:28.173Z,171.43
2019-01-23T02:37:57.945Z,188.73
2019-01-23T02:40:27.601Z,164.30
2019-01-23T02:42:57.349Z,195.43
2019-01-23T02:45:27.144Z,178.10
2019-01-23T02:47:56.868Z,181.00
2019-01-23T02:50:26.512Z,177.13
2019-01-23T02:52:56.192Z,147.47
2019-01-23T02:55:25.778Z,175.83
2019-01-23T02:57:55.433Z,161.70
2019-01-23T03:00:25.166Z,108.63
2019-01-23T03:02:54.794Z,161.53
2019-01-23T03:05:24.417Z,159.00
2019-01-23T03:07:54.093Z,136.67
2019-01-23T03:10:23.714Z,158.37
2019-01-23T03:12:53.456Z,159.00
2019-01-23T03:15:23.060Z,176.73
2019-01-23T03:17:52.734Z,173.47
2019-01-23T03:20:23.226Z,168.57
2019-01-23T03:22:52.861Z,155.77
2019-01-23T03:25:22.482Z,154.87
2019-01-23T03:27:52.086Z,150.40
2019-01-23T03:30:23.494Z,159.33
2019-01-23T03:32:53.123Z,141.33
2019-01-23T03:35:22.783Z,147.93
2019-01-23T03:37:52.557Z,143.63
2019-01-23T03:40:23.037Z,126.60
2019-01-23T03:42:52.659Z,131.00
2019-01-23T03:45:22.314Z,147.50
2019-01-23T03:47:52.001Z,140.90
2019-01-23T03:50:21.614Z,115.43
2019-01-23T03:52:51.332Z,103.73
2019-01-23T03:55:20.904Z,148.90
2019-01-23T03:57:50.562Z,124.17
2019-01-23T04:00:21.881Z,135.00
2019-01-23T04:02:52.796Z,115.17
2019-01-23T04:05:22.534Z,125.27
2019-01-23T04:07:52.341Z,108.43
2019-01-23T04:10:22.044Z,125.17
2019-01-23T04:12:51.692Z,109.67
2019-01-23T04:15:21.325Z,125.73
2019-01-23T04:17:50.946Z,83.53
2019-01-23T04:20:22.596Z,116.17
2019-01-23T04:22:52.297Z,118.87
2019-01-23T04:25:21.842Z,126.50
2019-01-23T04:27:51.451Z,132.50
2019-01-23T04:30:23.405Z,111.50
2019-01-23T04:32:53.047Z,109.97
2019-01-23T04:35:22.782Z,94.60
2019-01-23T04:37:52.451Z,88.00
2019-01-23T04:40:22.108Z,94.60
2019-01-23T04:42:51.687Z,91.57
2019-01-23T04:45:21.313Z,88.93
2019-01-23T04:47:51.013Z,91.27
2019-01-23T04:50:20.758Z,68.03
2019-01-23T04:53:20.271Z,99.97
2019-01-23T04:55:49.922Z,103.07
2019-01-23T04:58:19.562Z,94.93
2019-01-23T05:00:49.202Z,100.90
2019-01-23T05:03:18.907Z,96.67
2019-01-23T05:05:48.538Z,88.50
2019-01-23T05:08:18.186Z,89.37
2019-01-23T05:10:47.815Z,86.43
2019-01-23T05:13:17.425Z,89.90
2019-01-23T05:15:47.088Z,100.40
2019-01-23T05:18:16.690Z,97.30
2019-01-23T05:20:46.352Z,97.20
2019-01-23T05:23:15.997Z,96.97
2019-01-23T05:25:45.582Z,89.47
2019-01-23T05:28:15.166Z,91.33
2019-01-23T05:30:44.816Z,97.80
2019-01-23T05:33:15.157Z,91.70
2019-01-23T05:35:44.693Z,89.03
2019-01-23T05:38:14.313Z,92.23
2019-01-23T05:40:43.954Z,82.67
2019-01-23T05:43:13.627Z,88.77
2019-01-23T05:45:43.390Z,80.83
2019-01-23T05:48:12.958Z,79.97
2019-01-23T05:50:42.540Z,80.60
2019-01-23T05:53:12.214Z,80.03
2019-01-23T05:55:42.482Z,72.27
2019-01-23T05:58:12.388Z,51.93
2019-01-23T06:00:42.558Z,76.80
2019-01-23T06:03:12.217Z,88.37
2019-01-23T06:05:41.863Z,80.50
2019-01-23T06:08:11.530Z,68.77
2019-01-23T06:10:41.159Z,81.40
2019-01-23T06:13:10.789Z,68.63
2019-01-23T06:15:40.468Z,54.30
2019-01-23T06:18:10.117Z,97.03
2019-01-23T06:20:39.795Z,72.77
2019-01-23T06:23:09.424Z,84.97
2019-01-23T06:25:39.026Z,72.10
2019-01-23T06:28:08.611Z,81.10
2019-01-23T06:30:38.309Z,99.33
2019-01-23T06:33:07.955Z,64.13
2019-01-23T06:35:37.595Z,83.53
2019-01-23T06:38:07.224Z,74.23
2019-01-23T06:40:36.877Z,84.57
2019-01-23T06:43:06.820Z,82.03
2019-01-23T06:45:36.465Z,76.67
2019-01-23T06:48:06.369Z,79.33
2019-01-23T06:50:36.043Z,62.90
2019-01-23T06:53:05.662Z,77.67
2019-01-23T06:55:35.245Z,63.17
2019-01-23T06:58:04.947Z,74.23
2019-01-23T07:00:34.673Z,76.67
2019-01-23T07:03:04.446Z,62.50
2019-01-23T07:05:34.045Z,78.57
2019-01-23T07:08:03.783Z,75.30
2019-01-23T07:10:33.401Z,72.70
2019-01-23T07:13:02.966Z,70.13
2019-01-23T07:15:32.577Z,63.13
2019-01-23T07:18:02.196Z,74.47
2019-01-23T07:20:31.790Z,73.57
2019-01-23T07:23:01.395Z,77.67
2019-01-23T07:25:31.040Z,61.03
2019-01-23T07:28:00.686Z,60.27
2019-01-23T07:30:32.993Z,78.80
2019-01-23T07:33:02.538Z,59.77
2019-01-23T07:35:32.194Z,53.23
2019-01-23T07:38:01.861Z,58.83
2019-01-23T07:40:31.602Z,56.77
2019-01-23T07:43:01.266Z,45.67
2019-01-23T07:45:30.925Z,55.33
2019-01-23T07:48:00.582Z,46.27
2019-01-23T07:50:30.227Z,53.13
2019-01-23T07:53:00.017Z,43.03
2019-01-23T07:55:29.623Z,55.17
2019-01-23T07:58:03.822Z,60.83
2019-01-23T08:00:33.477Z,47.50
2019-01-23T08:03:03.075Z,47.37
2019-01-23T08:05:32.905Z,49.40
2019-01-23T08:08:07.523Z,48.17
2019-01-23T08:10:43.706Z,41.97
2019-01-23T08:13:13.721Z,40.47
2019-01-23T08:15:45.019Z,52.20
2019-01-23T08:21:45.366Z,49.77
2019-01-23T08:24:15.292Z,54.53
2019-01-23T08:26:50.042Z,41.33
2019-01-23T08:29:19.929Z,51.63
2019-01-23T08:31:50.073Z,47.10
2019-01-23T08:34:20.172Z,46.80
2019-01-23T08:36:49.916Z,50.40
2019-01-23T08:39:19.551Z,52.63
2019-01-23T08:41:49.300Z,47.43
2019-01-23T08:44:19.032Z,53.93
2019-01-23T08:46:48.849Z,52.47
2019-01-23T08:49:20.769Z,48.00
2019-01-23T08:51:51.839Z,45.33
2019-01-23T08:54:24.236Z,48.40
2019-01-23T08:56:55.670Z,52.30
2019-01-23T08:59:25.326Z,43.57
2019-01-23T09:01:54.954Z,53.50
2019-01-23T09:04:27.148Z,52.87
2019-01-23T09:06:56.759Z,50.03
2019-01-23T09:09:26.426Z,42.83
2019-01-23T09:11:56.038Z,47.37
2019-01-23T09:14:25.675Z,51.63
2019-01-23T09:16:55.263Z,50.73
2019-01-23T09:19:24.883Z,56.10
2019-01-23T09:21:54.450Z,97.40
2019-01-23T09:24:26.862Z,48.20
2019-01-23T09:26:56.531Z,50.13
2019-01-23T09:29:26.221Z,36.80
2019-01-23T09:32:44.866Z,49.90
2019-01-23T09:35:26.581Z,46.17
2019-01-23T09:38:35.353Z,47.23
2019-01-23T09:41:34.684Z,47.43
2019-01-23T09:44:33.392Z,34.67
2019-01-23T09:47:17.712Z,48.90
2019-01-23T09:50:09.046Z,57.90
2019-01-23T09:52:59.638Z,49.33
2019-01-23T09:55:29.253Z,48.40
2019-01-23T09:58:17.099Z,50.03
2019-01-23T10:00:46.736Z,54.93
2019-01-23T10:03:22.781Z,45.53
2019-01-23T10:05:47.651Z,45.97
2019-01-23T10:08:17.274Z,47.43
2019-01-23T10:10:46.891Z,46.90
2019-01-23T10:13:16.528Z,43.63
2019-01-23T10:16:09.255Z,40.17
2019-01-23T10:18:38.854Z,49.23
2019-01-23T10:21:08.410Z,43.87
2019-01-23T10:23:38.042Z,44.77
2019-01-23T10:26:07.662Z,48.37
2019-01-23T10:28:37.230Z,44.53
2019-01-23T10:31:07.039Z,49.03
2019-01-23T10:33:36.650Z,48.27
2019-01-23T10:36:06.473Z,46.30
2019-01-23T10:38:36.167Z,53.33
2019-01-23T10:41:05.890Z,48.17
2019-01-23T10:43:35.635Z,51.83
2019-01-23T10:46:05.537Z,49.97
2019-01-23T10:48:38.019Z,52.67
2019-01-23T10:51:06.708Z,48.87
2019-01-23T10:53:36.391Z,33.47
2019-01-23T10:56:06.176Z,41.73
2019-01-23T10:58:35.826Z,37.70
2019-01-23T11:01:06.229Z,44.93
2019-01-23T11:03:35.854Z,43.27
2019-01-23T11:06:05.557Z,46.07
2019-01-23T11:08:35.262Z,45.23
2019-01-23T11:11:04.919Z,41.33
2019-01-23T11:13:37.616Z,48.80
2019-01-23T11:16:07.382Z,36.93
2019-01-23T11:18:37.087Z,44.93
2019-01-23T11:21:06.786Z,47.17
2019-01-23T11:23:36.429Z,42.17
2019-01-23T11:26:06.237Z,47.40
2019-01-23T11:28:36.056Z,44.17
2019-01-23T11:31:06.655Z,44.33
2019-01-23T11:33:36.599Z,43.03
2019-01-23T11:36:06.386Z,32.60
2019-01-23T11:38:35.974Z,40.67
2019-01-23T11:41:06.079Z,48.93
2019-01-23T11:43:35.666Z,46.13
2019-01-23T11:46:05.321Z,44.87
2019-01-23T11:48:34.942Z,46.13
2019-01-23T11:51:04.971Z,44.20
2019-01-23T11:53:34.702Z,47.27
2019-01-23T11:56:04.948Z,36.60
2019-01-23T11:58:34.572Z,40.47
2019-01-23T12:01:04.452Z,40.83
2019-01-23T12:03:36.994Z,57.70
2019-01-23T12:06:06.712Z,57.87
2019-01-23T12:08:36.846Z,38.80
2019-01-23T12:11:06.485Z,48.83
2019-01-23T12:13:36.090Z,35.57
2019-01-23T12:16:05.819Z,44.63
2019-01-23T12:18:35.417Z,43.47
2019-01-23T12:21:05.166Z,37.37
2019-01-23T12:23:34.758Z,53.80
2019-01-23T12:26:04.605Z,43.57
2019-01-23T12:28:34.243Z,30.77
2019-01-23T12:31:03.812Z,40.07
2019-01-23T12:33:33.429Z,48.00
2019-01-23T12:36:03.004Z,39.10
2019-01-23T12:38:32.562Z,45.47
2019-01-23T12:41:02.215Z,39.67
2019-01-23T12:43:31.809Z,47.77
2019-01-23T12:46:01.437Z,43.63
2019-01-23T12:48:31.085Z,42.90
2019-01-23T12:51:00.651Z,41.07
2019-01-23T12:53:30.248Z,43.97
2019-01-23T12:55:59.825Z,45.40
2019-01-23T12:58:29.489Z,47.03
2019-01-23T13:00:59.097Z,42.33
2019-01-23T13:03:28.714Z,48.60
2019-01-23T13:05:58.342Z,67.00
2019-01-23T13:08:27.945Z,50.20
2019-01-23T13:10:57.668Z,42.07
2019-01-23T13:13:27.237Z,40.87
2019-01-23T13:15:56.804Z,42.00
2019-01-23T13:18:26.394Z,40.67
2019-01-23T13:20:55.919Z,39.87
2019-01-23T13:23:25.544Z,44.17
2019-01-23T13:25:55.165Z,42.57
2019-01-23T13:28:24.749Z,49.07
2019-01-23T13:30:54.366Z,40.87
2019-01-23T13:33:23.925Z,37.73
2019-01-23T13:35:53.573Z,42.17
2019-01-23T13:38:23.263Z,41.50
2019-01-23T13:40:52.857Z,48.47
2019-01-23T13:43:22.386Z,39.30
2019-01-23T13:45:51.964Z,43.00
2019-01-23T13:48:21.533Z,40.07
2019-01-23T13:50:51.172Z,38.67
2019-01-23T13:53:20.780Z,50.20
2019-01-23T13:55:50.433Z,47.43
2019-01-23T13:58:20.063Z,42.63
2019-01-23T14:00:49.610Z,43.87
2019-01-23T14:03:19.219Z,45.57
2019-01-23T14:05:48.768Z,46.70
2019-01-23T14:08:18.364Z,42.97
2019-01-23T14:10:47.966Z,40.83
2019-01-23T14:13:17.634Z,46.50
2019-01-23T14:15:47.275Z,37.00
2019-01-23T14:18:19.944Z,41.80
2019-01-23T14:20:49.612Z,45.80
2019-01-23T14:23:20.740Z,41.33
2019-01-23T14:25:53.565Z,40.87
2019-01-23T14:28:23.150Z,44.73
2019-01-23T14:30:52.727Z,49.90
2019-01-23T14:33:22.450Z,39.23
2019-01-23T14:35:52.074Z,47.27
2019-01-23T14:38:21.679Z,79.53
2019-01-23T14:40:51.349Z,57.37
2019-01-23T14:43:20.893Z,41.73
2019-01-23T14:45:50.624Z,41.67
2019-01-23T14:48:20.198Z,83.70
2019-01-23T14:50:50.177Z,54.10
2019-01-23T14:53:22.416Z,43.23
2019-01-23T14:55:52.066Z,48.47
2019-01-23T14:58:21.884Z,50.43
2019-01-23T15:00:51.471Z,54.27
2019-01-23T15:03:24.152Z,49.00
2019-01-23T15:05:55.622Z,55.57
2019-01-23T15:08:25.229Z,55.93
2019-01-23T15:10:54.965Z,49.93
2019-01-23T15:13:24.582Z,54.03
2019-01-23T15:15:54.500Z,53.97
2019-01-23T15:18:24.045Z,52.70
2019-01-23T15:20:53.555Z,59.07
2019-01-23T15:23:23.232Z,56.80
2019-01-23T15:25:52.903Z,42.97
2019-01-23T15:28:22.550Z,52.70
2019-01-23T15:30:52.439Z,50.80
2019-01-23T15:33:24.271Z,41.33
2019-01-23T15:35:53.897Z,45.30
2019-01-23T15:38:26.084Z,35.70
2019-01-23T15:40:55.831Z,49.43
2019-01-23T15:43:25.694Z,42.83
2019-01-23T15:45:55.381Z,48.20
2019-01-23T15:48:25.010Z,50.20
2019-01-23T15:50:58.045Z,39.00
2019-01-23T15:53:27.756Z,46.90
2019-01-23T15:55:57.391Z,45.30
2019-01-23T15:58:27.152Z,46.50
2019-01-23T16:00:56.815Z,42.30
2019-01-23T16:03:26.530Z,46.07
2019-01-23T16:05:56.196Z,52.37
2019-01-23T16:08:25.985Z,34.93
2019-01-23T16:10:55.728Z,31.80
2019-01-23T16:13:26.806Z,37.87
2019-01-23T16:15:56.534Z,32.87
2019-01-23T16:18:26.202Z,39.77
2019-01-23T16:20:55.801Z,40.80
2019-01-23T16:23:25.418Z,48.90
2019-01-23T16:25:54.974Z,42.67
2019-01-23T16:28:24.619Z,44.27
2019-01-23T16:30:54.205Z,45.73
2019-01-23T16:33:23.845Z,88.73
2019-01-23T16:35:53.414Z,46.30
2019-01-23T16:38:23.087Z,35.50
2019-01-23T16:40:52.803Z,42.40
2019-01-23T16:43:22.458Z,40.67
2019-01-23T16:45:55.316Z,48.10
2019-01-23T16:48:24.699Z,37.77
2019-01-23T16:50:54.450Z,49.83
2019-01-23T16:53:24.521Z,44.93
2019-01-23T16:55:54.387Z,46.93
2019-01-23T16:58:24.053Z,39.10
2019-01-23T17:00:53.618Z,41.67
2019-01-23T17:03:23.269Z,40.17
2019-01-23T17:05:52.889Z,44.27
2019-01-23T17:08:22.531Z,47.63
2019-01-23T17:10:52.167Z,41.03
2019-01-23T17:13:21.864Z,48.00
2019-01-23T17:15:51.528Z,48.67
2019-01-23T17:18:21.249Z,43.73
2019-01-23T17:20:51.611Z,43.23
2019-01-23T17:23:21.436Z,48.10
2019-01-23T17:25:51.115Z,37.93
2019-01-23T17:28:20.799Z,47.40
2019-01-23T17:30:50.524Z,46.87
2019-01-23T17:33:25.184Z,43.93
2019-01-23T17:35:54.822Z,39.87
2019-01-23T17:38:25.360Z,50.73
2019-01-23T17:40:55.090Z,35.27
2019-01-23T17:43:25.321Z,40.67
2019-01-23T17:45:54.945Z,43.03
2019-01-23T17:48:24.755Z,38.70
2019-01-23T17:50:54.397Z,39.20
2019-01-23T17:53:25.878Z,34.10
2019-01-23T17:56:01.554Z,29.57
2019-01-23T17:58:31.178Z,32.10
2019-01-23T18:01:01.085Z,27.73
2019-01-23T18:03:30.799Z,24.83
2019-01-23T18:06:00.354Z,26.50
2019-01-23T18:08:29.964Z,32.07
2019-01-23T18:10:59.596Z,40.83
2019-01-23T18:13:29.257Z,28.23
2019-01-23T18:16:08.246Z,29.07
2019-01-23T18:18:37.919Z,18.80
2019-01-23T18:21:09.451Z,25.83
2019-01-23T18:23:39.074Z,30.00
2019-01-23T18:26:08.732Z,30.10
2019-01-23T18:28:39.278Z,28.00
2019-01-23T18:31:51.990Z,27.10
2019-01-23T18:34:57.459Z,30.97
2019-01-23T18:38:32.224Z,28.47
2019-01-23T18:41:34.960Z,33.30
2019-01-23T18:44:41.481Z,36.33
2019-01-23T18:47:57.233Z,32.13
2019-01-23T18:51:16.158Z,42.00
2019-01-23T18:53:45.809Z,33.50
2019-01-23T18:56:15.575Z,33.73
2019-01-23T18:58:45.606Z,33.73
2019-01-23T19:01:15.858Z,33.63
2019-01-23T19:03:51.206Z,29.90
2019-01-23T19:06:21.059Z,36.43
2019-01-23T19:08:50.808Z,33.83
2019-01-23T19:11:20.537Z,31.67
2019-01-23T19:13:50.199Z,37.10
2019-01-23T19:16:19.994Z,30.90
2019-01-23T19:18:49.739Z,28.63
2019-01-23T19:21:19.321Z,29.67
2019-01-23T19:23:48.877Z,38.87
2019-01-23T19:26:18.709Z,34.83
2019-01-23T19:33:50.514Z,35.73
2019-01-23T19:36:20.087Z,30.97
2019-01-23T19:38:49.711Z,35.37
2019-01-23T19:41:20.567Z,36.60
2019-01-23T19:43:51.746Z,27.63
2019-01-23T19:46:21.229Z,36.97
2019-01-23T19:48:53.859Z,34.03
2019-01-23T19:51:23.500Z,32.37
2019-01-23T19:53:53.148Z,41.90
2019-01-23T19:56:22.859Z,28.73
2019-01-23T19:59:06.037Z,20.60
2019-01-23T20:06:16.071Z,29.13
2019-01-23T20:08:53.587Z,30.47
2019-01-23T20:11:26.239Z,32.90
2019-01-23T20:13:56.324Z,26.83
2019-01-23T20:16:25.974Z,32.20
2019-01-23T20:18:55.789Z,35.03
2019-01-23T20:21:44.502Z,35.50
2019-01-23T20:24:17.052Z,32.87
2019-01-23T20:26:46.792Z,161.97
2019-01-23T20:29:16.664Z,39.13
2019-01-23T20:31:48.238Z,35.47
2019-01-23T20:34:17.854Z,33.50
2019-01-23T20:36:47.497Z,29.53
2019-01-23T20:39:17.212Z,36.13
2019-01-23T20:41:46.881Z,38.87
2019-01-23T20:44:16.623Z,30.07
2019-01-23T20:46:46.327Z,38.50
2019-01-23T20:49:15.993Z,37.77
2019-01-23T20:51:45.650Z,35.90
2019-01-23T20:54:15.364Z,32.83
2019-01-23T20:56:45.225Z,37.60
2019-01-23T20:59:14.904Z,33.97
2019-01-23T21:01:44.550Z,41.50
2019-01-23T21:04:14.152Z,46.67
2019-01-23T21:06:43.892Z,40.07
2019-01-23T21:09:13.474Z,39.07
2019-01-23T21:11:43.149Z,42.10
2019-01-23T21:14:15.867Z,37.70
2019-01-23T21:17:08.145Z,40.70
2019-01-23T21:19:37.788Z,31.57
2019-01-23T21:22:07.761Z,26.40
2019-01-23T21:24:38.441Z,26.73
2019-01-23T21:27:08.100Z,31.77
2019-01-23T21:29:37.740Z,35.43
2019-01-23T21:32:10.691Z,27.60
2019-01-23T21:34:40.310Z,31.90
2019-01-23T21:37:11.547Z,32.00
2019-01-23T21:39:41.302Z,37.17
2019-01-23T21:42:12.554Z,33.23
2019-01-23T21:44:42.166Z,37.53
2019-01-23T21:47:17.763Z,36.50
2019-01-23T21:49:47.440Z,28.30
2019-01-23T21:52:17.094Z,40.10
2019-01-23T21:54:49.029Z,33.73
2019-01-23T22:00:57.293Z,31.67
2019-01-23T22:03:36.732Z,27.93
2019-01-23T22:06:07.431Z,36.13
2019-01-23T22:08:37.089Z,40.10
2019-01-23T22:11:06.801Z,33.13
2019-01-23T22:13:36.498Z,43.13
2019-01-23T22:16:32.731Z,35.00
2019-01-23T22:19:14.523Z,39.53
2019-01-23T22:21:44.205Z,38.97
2019-01-23T22:24:14.751Z,38.97
2019-01-23T22:26:44.440Z,41.80
2019-01-23T22:29:14.184Z,36.67
2019-01-23T22:31:43.919Z,38.37
2019-01-23T22:34:13.686Z,39.80
2019-01-23T22:36:51.857Z,36.27
2019-01-23T22:39:29.077Z,33.87
2019-01-23T22:42:11.471Z,32.53
2019-01-23T22:45:04.147Z,30.80
2019-01-23T22:47:37.012Z,32.73
2019-01-23T22:50:44.108Z,33.47
2019-01-23T22:53:27.393Z,34.93
2019-01-23T22:55:57.609Z,34.47
2019-01-23T22:58:40.914Z,32.80
2019-01-23T23:01:28.598Z,29.90
2019-01-23T23:04:11.820Z,31.40
2019-01-23T23:06:46.798Z,29.60
2019-01-23T23:09:22.575Z,37.27
2019-01-23T23:12:24.348Z,29.10
2019-01-23T23:15:00.883Z,33.40
2019-01-23T23:17:30.610Z,35.90
2019-01-23T23:20:00.251Z,35.20
2019-01-23T23:22:29.934Z,32.10
2019-01-23T23:25:16.645Z,35.27
2019-01-23T23:27:46.197Z,30.17
2019-01-23T23:30:16.393Z,32.67
2019-01-23T23:32:46.023Z,34.23
2019-01-23T23:35:15.654Z,34.03
2019-01-23T23:37:45.554Z,34.77
2019-01-23T23:40:15.469Z,34.80
2019-01-23T23:42:48.195Z,32.97
2019-01-23T23:45:17.959Z,35.70
2019-01-23T23:47:47.566Z,37.00
2019-01-23T23:50:17.694Z,33.07
2019-01-23T23:52:47.414Z,36.80
2019-01-23T23:55:17.074Z,35.67
2019-01-23T23:57:47.071Z,34.63
